Waterville, ME

9:06 AM EST on February 09, 2016 (GMT -0500)
Waterville Lafleur | | Change Station
CLOSE
Current Station
Airport
Location: Waterville,
Elevation: 331 ft
Nearby Weather Stations

Elev 331 ft 44.53 °N, 69.68 °W | Updated 10 minutes ago

Light Snow
Light Snow Mist
17 °F
Feels Like 5 °F
N
10
Wind Variable Wind from North

Today
High -- | Low -- °F
--% Chance of Precip.
Yesterday
High -- | Low -- °F
Precip. -- in
Pressure 29.78 in
Visibility 5.0 miles
Clouds Overcast 1400 ft
Windchill 5 °F
Dew Point 13 °F
Humidity 84%
Rainfall 0.03 in
Snow Depth Not available.
6:48 AM 4:58 PM
New Moon, 1% visible
METAR KWVL 091356Z AUTO 36009KT 5SM -SN BR OVC014 M08/M11 A2966 RMK AO2 SLP083 P0000 T10831106 FZRANO
Pressure 29.78 in
Visibility 5.0 miles
Clouds Overcast 1400 ft
Windchill 5 °F
Dew Point 13 °F
Humidity 84%
Rainfall 0.03 in
Snow Depth Not available.
6:48 AM 4:58 PM
New Moon, 1% visible
METAR KWVL 091356Z AUTO 36009KT 5SM -SN BR OVC014 M08/M11 A2966 RMK AO2 SLP083 P0000 T10831106 FZRANO

10-Day Weather Forecast

Almanac

Astronomy

Feb. 09, 2016 Rise Set
Actual Time
Civil Twilight
Nautical Twilight
Astronomical Twilight
Moon
Length of Visible Light
Length of Day
Tomorrow will be .
, % of the Moon is Illuminated

Today's Extremes

State Highs State Lows

Community

WunderPhotos

Upload Photos

1,891,597 photos uploaded!

WunderBlog® & News

Nearby

Air Quality

  Air Quality AQ Index Pollutant
Not available.

Snow Depth

Station Depth Elevation

Earthquake Activity

City Distance Mag. Time & Date
Minimum magnitude displayed is 2.5.

Coastal Water Temperatures

Place Temperature

Stations

Nearby Weather Stations

Station Location Temp. Windchill Dew Point Humidity Wind Precip. Elev Updated Type
                   

Watches & Warnings

There are currently no watches in effect.